createdAt,value
2023-02-22T00:01:36.254Z,14.67
2023-02-22T00:04:05.157Z,21.87
2023-02-22T00:06:32.660Z,15.23
2023-02-22T00:09:02.275Z,19.50
2023-02-22T00:11:31.457Z,18.30
2023-02-22T00:13:59.032Z,15.47
2023-02-22T00:16:27.910Z,16.70
2023-02-22T00:18:55.610Z,18.00
2023-02-22T00:21:23.502Z,10.90
2023-02-22T00:23:51.050Z,13.87
2023-02-22T00:26:23.870Z,15.03
2023-02-22T00:28:53.398Z,22.57
2023-02-22T00:31:22.311Z,19.43
2023-02-22T00:33:51.175Z,23.10
2023-02-22T00:36:18.713Z,15.77
2023-02-22T00:38:46.193Z,18.07
2023-02-22T00:41:13.819Z,14.37
2023-02-22T00:43:41.409Z,21.43
2023-02-22T00:46:08.927Z,22.50
2023-02-22T00:48:36.464Z,28.60
2023-02-22T00:51:05.681Z,17.40
2023-02-22T00:53:33.224Z,13.43
2023-02-22T00:56:00.723Z,12.83
2023-02-22T00:58:28.785Z,13.93
2023-02-22T01:00:56.322Z,20.50
2023-02-22T01:03:23.838Z,13.40
2023-02-22T01:05:51.470Z,20.10
2023-02-22T01:08:20.431Z,12.47
2023-02-22T01:10:48.157Z,25.33
2023-02-22T01:13:15.693Z,23.23
2023-02-22T01:15:45.191Z,16.73
2023-02-22T01:18:17.103Z,17.10
2023-02-22T01:20:48.015Z,15.63
2023-02-22T01:23:17.246Z,46.33
2023-02-22T01:25:46.374Z,46.33
2023-02-22T01:28:15.101Z,35.83
2023-02-22T01:30:42.653Z,28.07
2023-02-22T01:33:10.413Z,20.37
2023-02-22T01:35:40.781Z,22.23
2023-02-22T01:38:09.954Z,24.53
2023-02-22T01:40:38.954Z,19.20
2023-02-22T01:43:17.260Z,16.37
2023-02-22T01:45:49.958Z,23.10
2023-02-22T01:48:21.435Z,12.07
2023-02-22T01:50:54.023Z,26.10
2023-02-22T01:53:24.139Z,21.03
2023-02-22T01:55:53.614Z,32.07
2023-02-22T01:58:25.249Z,15.73
2023-02-22T02:00:52.813Z,25.40
2023-02-22T02:03:23.494Z,97.57
2023-02-22T02:05:53.674Z,72.73
2023-02-22T02:08:30.105Z,36.00
2023-02-22T02:10:58.942Z,51.50
2023-02-22T02:13:29.146Z,47.50
2023-02-22T02:15:57.310Z,36.80
2023-02-22T02:18:27.330Z,31.33
2023-02-22T02:21:34.647Z,40.37
2023-02-22T02:24:28.384Z,36.80
2023-02-22T02:27:20.899Z,27.80
2023-02-22T02:30:29.446Z,15.80
2023-02-22T02:33:04.080Z,51.77
2023-02-22T02:35:47.790Z,41.97
2023-02-22T02:38:23.877Z,18.73
2023-02-22T02:40:59.454Z,39.67
2023-02-22T02:43:33.373Z,29.67
2023-02-22T02:46:06.978Z,27.40
2023-02-22T02:48:40.250Z,34.30
2023-02-22T02:51:14.191Z,25.43
2023-02-22T02:53:45.699Z,25.80
2023-02-22T02:56:13.499Z,19.17
2023-02-22T02:58:48.978Z,59.90
2023-02-22T03:01:28.853Z,32.80
2023-02-22T03:04:20.294Z,75.30
2023-02-22T03:07:26.570Z,36.17
2023-02-22T03:10:03.840Z,26.83
2023-02-22T03:12:43.790Z,16.73
2023-02-22T03:15:23.511Z,24.93
2023-02-22T03:17:57.789Z,15.70
2023-02-22T03:20:32.454Z,24.87
2023-02-22T03:23:05.449Z,20.90
2023-02-22T03:25:37.595Z,24.00
2023-02-22T03:28:11.402Z,29.63
2023-02-22T03:30:44.122Z,24.87
2023-02-22T03:33:16.623Z,18.33
2023-02-22T03:35:50.940Z,18.90
2023-02-22T03:38:21.847Z,17.03
2023-02-22T03:40:54.393Z,20.30
2023-02-22T03:43:25.881Z,20.80
2023-02-22T03:45:54.090Z,29.30
2023-02-22T03:48:26.672Z,18.27
2023-02-22T03:50:58.551Z,21.20
2023-02-22T03:53:26.255Z,19.40
2023-02-22T03:55:57.859Z,32.70
2023-02-22T03:58:27.486Z,20.63
2023-02-22T04:00:56.072Z,18.97
2023-02-22T04:03:24.267Z,19.40
2023-02-22T04:05:51.740Z,21.60
2023-02-22T04:08:20.594Z,22.07
2023-02-22T04:10:48.062Z,20.43
2023-02-22T04:13:15.591Z,21.30
2023-02-22T04:15:43.298Z,17.87
2023-02-22T04:18:10.782Z,21.67
2023-02-22T04:20:38.237Z,18.80
2023-02-22T04:23:05.816Z,22.30
2023-02-22T04:25:34.602Z,33.07
2023-02-22T04:28:02.121Z,25.10
2023-02-22T04:30:30.107Z,17.83
2023-02-22T04:32:57.874Z,16.37
2023-02-22T04:35:25.360Z,36.80
2023-02-22T04:37:52.862Z,63.13
2023-02-22T04:40:23.010Z,27.40
2023-02-22T04:42:51.833Z,17.47
2023-02-22T04:45:19.326Z,16.40
2023-02-22T04:47:46.813Z,22.00
2023-02-22T04:50:15.259Z,19.83
2023-02-22T04:52:42.746Z,17.07
2023-02-22T04:55:10.853Z,23.30
2023-02-22T04:57:38.353Z,21.03
2023-02-22T05:00:10.189Z,21.70
2023-02-22T05:02:39.912Z,18.70
2023-02-22T05:05:08.152Z,19.93
2023-02-22T05:07:35.627Z,23.53
2023-02-22T05:10:03.661Z,35.97
2023-02-22T05:12:31.134Z,40.63
2023-02-22T05:14:58.600Z,34.07
2023-02-22T05:17:27.475Z,27.97
2023-02-22T05:19:54.958Z,24.20
2023-02-22T05:22:22.439Z,35.37
2023-02-22T05:24:49.910Z,37.20
2023-02-22T05:27:17.428Z,57.83
2023-02-22T05:29:44.933Z,38.07
2023-02-22T05:32:13.112Z,29.40
2023-02-22T05:34:41.946Z,24.37
2023-02-22T05:37:09.428Z,28.17
2023-02-22T05:39:36.928Z,27.03
2023-02-22T05:42:04.504Z,25.67
2023-02-22T05:44:31.982Z,34.43
2023-02-22T05:46:59.452Z,31.30
2023-02-22T05:49:26.942Z,36.60
2023-02-22T05:51:59.505Z,43.07
2023-02-22T05:54:27.028Z,40.30
2023-02-22T05:56:54.498Z,46.07
2023-02-22T05:59:21.973Z,43.57
2023-02-22T06:01:49.498Z,39.00
2023-02-22T06:04:17.093Z,40.40
2023-02-22T06:06:44.543Z,83.83
2023-02-22T06:09:13.374Z,44.17
2023-02-22T06:11:40.856Z,36.33
2023-02-22T06:14:08.320Z,41.57
2023-02-22T06:16:35.811Z,48.30
2023-02-22T06:19:03.362Z,40.47
2023-02-22T06:21:30.840Z,34.80
2023-02-22T06:23:58.317Z,37.20
2023-02-22T06:26:27.145Z,62.50
2023-02-22T06:28:54.602Z,50.57
2023-02-22T06:31:22.078Z,56.30
2023-02-22T06:33:49.544Z,43.60
2023-02-22T06:36:16.981Z,44.77
2023-02-22T06:38:44.430Z,35.47
2023-02-22T06:41:11.867Z,46.07
2023-02-22T06:43:40.638Z,39.03
2023-02-22T06:46:11.506Z,38.13
2023-02-22T06:48:40.133Z,39.17
2023-02-22T06:51:09.193Z,42.80
2023-02-22T06:53:36.722Z,46.50
2023-02-22T06:56:04.428Z,38.50
2023-02-22T06:58:31.874Z,37.60
2023-02-22T07:01:02.753Z,48.27
2023-02-22T07:03:30.269Z,59.07
2023-02-22T07:05:57.730Z,40.97
2023-02-22T07:08:25.191Z,33.53
2023-02-22T07:10:53.048Z,47.70
2023-02-22T07:13:20.528Z,53.10
2023-02-22T07:15:48.315Z,64.23
2023-02-22T07:18:17.147Z,68.07
2023-02-22T07:20:44.622Z,98.93
2023-02-22T07:23:14.846Z,53.70
2023-02-22T07:25:42.722Z,34.43
2023-02-22T07:28:11.049Z,55.33
2023-02-22T07:30:39.186Z,123.23
2023-02-22T07:33:09.288Z,48.40
2023-02-22T07:35:40.065Z,25.97
2023-02-22T07:38:09.171Z,54.67
2023-02-22T07:40:37.743Z,80.57
2023-02-22T07:43:11.247Z,108.27
2023-02-22T07:45:38.727Z,39.27
2023-02-22T07:48:07.630Z,93.00
2023-02-22T07:50:36.560Z,21.37
2023-02-22T07:53:10.956Z,25.37
2023-02-22T07:55:38.575Z,49.20
2023-02-22T07:58:09.163Z,41.23
2023-02-22T08:00:39.215Z,42.00
2023-02-22T08:03:08.576Z,31.77
2023-02-22T08:05:37.500Z,21.57
2023-02-22T08:08:08.244Z,83.30
2023-02-22T08:10:36.945Z,45.10
2023-02-22T08:13:05.837Z,28.60
2023-02-22T08:15:35.677Z,61.87
2023-02-22T08:18:05.027Z,74.20
2023-02-22T08:20:32.922Z,41.40
2023-02-22T08:23:00.372Z,112.10
2023-02-22T08:25:30.499Z,150.63
2023-02-22T08:28:01.090Z,162.75
2023-02-22T08:30:29.894Z,155.48
2023-02-22T08:32:58.096Z,157.52
2023-02-22T08:35:27.394Z,74.53
2023-02-22T08:37:58.235Z,99.32
2023-02-22T08:40:28.644Z,104.05
2023-02-22T08:42:57.466Z,116.03
2023-02-22T08:45:25.375Z,22.08
2023-02-22T08:47:52.993Z,16.10
2023-02-22T08:50:23.107Z,18.90
2023-02-22T08:52:51.300Z,18.35
2023-02-22T08:55:20.685Z,15.82
2023-02-22T08:57:48.128Z,113.45
2023-02-22T09:00:18.552Z,38.47
2023-02-22T09:02:46.199Z,47.25
2023-02-22T09:05:13.951Z,68.68
2023-02-22T09:07:43.340Z,53.28
2023-02-22T09:10:15.397Z,47.03
2023-02-22T09:12:43.246Z,74.40
2023-02-22T09:15:12.139Z,88.80
2023-02-22T09:17:40.928Z,82.47
2023-02-22T09:20:10.352Z,53.00
2023-02-22T09:22:37.808Z,29.00
2023-02-22T09:25:16.269Z,19.98
2023-02-22T09:27:44.968Z,12.02
2023-02-22T09:30:18.070Z,10.75
2023-02-22T09:32:47.024Z,9.75
2023-02-22T09:35:14.600Z,9.43
2023-02-22T09:37:44.856Z,9.88
2023-02-22T09:40:24.653Z,10.35
2023-02-22T09:43:03.190Z,8.88
2023-02-22T09:45:36.924Z,12.40
2023-02-22T09:48:21.152Z,11.20
2023-02-22T09:50:53.675Z,44.70
2023-02-22T09:53:29.537Z,33.55
2023-02-22T09:56:01.576Z,11.27
2023-02-22T09:58:34.217Z,8.65
2023-02-22T10:01:17.205Z,7.38
2023-02-22T10:03:51.638Z,6.70
2023-02-22T10:06:22.589Z,7.70
2023-02-22T10:08:53.719Z,7.13
2023-02-22T10:11:35.008Z,7.22
2023-02-22T10:14:14.449Z,6.70
2023-02-22T10:16:48.183Z,6.43
2023-02-22T10:19:25.945Z,6.50
2023-02-22T10:22:06.785Z,6.28
2023-02-22T10:24:45.453Z,7.20
2023-02-22T10:27:19.504Z,6.70
2023-02-22T10:29:51.781Z,6.45
2023-02-22T10:32:32.147Z,6.63
2023-02-22T10:35:05.380Z,6.72
2023-02-22T10:37:34.293Z,6.50
2023-02-22T10:40:13.892Z,5.90
2023-02-22T10:42:41.350Z,6.45
2023-02-22T10:45:22.407Z,6.57
2023-02-22T10:47:50.711Z,5.93
2023-02-22T10:50:21.394Z,6.43
2023-02-22T10:52:49.112Z,6.93
2023-02-22T10:55:17.497Z,5.78
2023-02-22T10:57:48.533Z,6.50
2023-02-22T11:00:20.483Z,6.13
2023-02-22T11:02:53.656Z,6.53
2023-02-22T11:05:36.868Z,6.68
2023-02-22T11:08:24.645Z,6.05
2023-02-22T11:10:54.272Z,6.60
2023-02-22T11:13:26.910Z,6.93
2023-02-22T11:15:54.738Z,6.18
2023-02-22T11:18:26.643Z,6.40
2023-02-22T11:21:07.780Z,6.18
2023-02-22T11:23:37.551Z,6.10
2023-02-22T11:26:09.840Z,5.63
2023-02-22T11:28:49.093Z,5.68
2023-02-22T11:31:21.552Z,6.05
2023-02-22T11:36:37.443Z,5.82
2023-02-22T11:39:11.456Z,5.50
2023-02-22T11:41:39.050Z,5.07
2023-02-22T11:44:15.080Z,5.80
2023-02-22T11:46:44.575Z,5.43
2023-02-22T11:49:17.212Z,5.70
2023-02-22T11:51:54.317Z,5.18
2023-02-22T11:54:46.916Z,5.30
2023-02-22T11:57:32.929Z,5.47
2023-02-22T12:00:15.952Z,5.10
2023-02-22T12:03:03.385Z,5.25
2023-02-22T12:05:59.353Z,5.20
2023-02-22T12:08:40.975Z,5.50
2023-02-22T12:11:18.158Z,5.30
2023-02-22T12:14:02.491Z,5.70
2023-02-22T12:16:44.708Z,5.47
2023-02-22T12:19:21.956Z,5.50
2023-02-22T12:21:55.716Z,5.30
2023-02-22T12:24:27.989Z,5.07
2023-02-22T12:27:02.099Z,5.13
2023-02-22T12:29:37.564Z,4.63
2023-02-22T12:32:09.968Z,4.85
2023-02-22T12:34:41.857Z,4.23
2023-02-22T12:37:18.858Z,4.72
2023-02-22T12:40:03.271Z,4.45
2023-02-22T12:42:40.785Z,4.60
2023-02-22T12:45:16.782Z,4.05
2023-02-22T12:47:50.090Z,4.45
2023-02-22T12:50:20.865Z,5.03
2023-02-22T12:52:56.311Z,4.78
2023-02-22T12:55:29.471Z,4.30
2023-02-22T12:58:07.590Z,4.15
2023-02-22T13:00:42.671Z,4.35
2023-02-22T13:03:27.033Z,4.15
2023-02-22T13:06:03.909Z,4.20
2023-02-22T13:08:38.225Z,4.38
2023-02-22T13:11:22.273Z,3.80
2023-02-22T13:14:03.784Z,4.15
2023-02-22T13:16:43.711Z,3.60
2023-02-22T13:19:24.870Z,4.00
2023-02-22T13:21:57.964Z,3.92
2023-02-22T13:24:30.276Z,4.45
2023-02-22T13:27:02.624Z,4.60
2023-02-22T13:29:35.031Z,4.30
2023-02-22T13:32:18.169Z,4.00
2023-02-22T13:35:15.066Z,4.60
2023-02-22T13:37:56.742Z,4.55
2023-02-22T13:40:54.825Z,4.75
2023-02-22T13:43:43.304Z,3.97
2023-02-22T13:46:36.118Z,4.22
2023-02-22T13:49:18.744Z,4.65
2023-02-22T13:51:51.478Z,4.43
2023-02-22T13:54:25.318Z,4.28
2023-02-22T13:56:55.057Z,4.10
2023-02-22T13:59:28.588Z,4.15
2023-02-22T14:01:57.286Z,4.50
2023-02-22T14:04:45.541Z,4.05
2023-02-22T14:07:46.711Z,4.32
2023-02-22T14:10:48.928Z,4.05
2023-02-22T14:13:18.836Z,4.25
2023-02-22T14:16:20.887Z,4.32
2023-02-22T14:18:51.591Z,3.90
2023-02-22T14:21:21.176Z,4.13
2023-02-22T14:23:50.658Z,4.18
2023-02-22T14:26:24.436Z,3.83
2023-02-22T14:28:55.472Z,3.80
2023-02-22T14:31:36.055Z,3.75
2023-02-22T14:34:08.242Z,3.22
2023-02-22T14:36:41.738Z,3.05
2023-02-22T14:39:21.295Z,2.90
2023-02-22T14:41:54.621Z,3.42
2023-02-22T14:44:28.708Z,3.40
2023-02-22T14:47:02.418Z,2.85
2023-02-22T14:49:32.983Z,3.08
2023-02-22T14:52:06.186Z,2.90
2023-02-22T14:54:41.741Z,2.78
2023-02-22T14:57:15.605Z,2.40
2023-02-22T14:59:58.856Z,2.67
2023-02-22T15:02:27.772Z,2.17
2023-02-22T15:04:56.758Z,3.10
2023-02-22T15:07:28.127Z,2.58
2023-02-22T15:10:20.547Z,3.10
2023-02-22T15:13:08.629Z,3.17
2023-02-22T15:15:43.720Z,2.83
2023-02-22T15:18:21.928Z,3.00
2023-02-22T15:20:55.857Z,3.42
2023-02-22T15:23:27.627Z,3.28
2023-02-22T15:25:55.104Z,3.47
2023-02-22T15:28:25.286Z,3.20
2023-02-22T15:30:52.778Z,3.88
2023-02-22T15:33:24.171Z,4.50
2023-02-22T15:35:56.655Z,4.70
2023-02-22T15:38:29.354Z,3.47
2023-02-22T15:41:02.491Z,3.55
2023-02-22T15:43:32.024Z,3.17
2023-02-22T15:46:00.778Z,3.03
2023-02-22T15:48:31.542Z,3.08
2023-02-22T15:51:04.178Z,2.80
2023-02-22T15:53:39.873Z,2.55
2023-02-22T15:56:12.549Z,2.72
2023-02-22T15:58:40.449Z,2.60
2023-02-22T16:01:10.993Z,2.97
2023-02-22T16:03:47.044Z,2.63
2023-02-22T16:06:28.423Z,11.98
2023-02-22T16:08:57.357Z,11.20
2023-02-22T16:11:29.857Z,6.97
2023-02-22T16:14:00.776Z,6.90
2023-02-22T16:16:34.051Z,8.15
2023-02-22T16:19:28.568Z,8.32
2023-02-22T16:21:58.242Z,6.90
2023-02-22T16:24:30.080Z,8.18
2023-02-22T16:27:07.172Z,6.30
2023-02-22T16:29:34.746Z,6.50
2023-02-22T16:32:03.833Z,5.97
2023-02-22T16:34:32.710Z,6.18
2023-02-22T16:37:01.239Z,5.95
2023-02-22T16:39:31.336Z,5.13
2023-02-22T16:42:01.156Z,4.68
2023-02-22T16:44:29.754Z,4.00
2023-02-22T16:46:59.251Z,3.70
2023-02-22T16:49:27.346Z,4.40
2023-02-22T16:51:59.721Z,12.05
2023-02-22T16:54:34.174Z,23.25
2023-02-22T16:57:03.889Z,66.20
2023-02-22T16:59:34.030Z,38.72
2023-02-22T17:02:01.505Z,24.83
2023-02-22T17:04:29.119Z,39.40
2023-02-22T17:06:58.991Z,31.67
2023-02-22T17:09:26.812Z,69.00
2023-02-22T17:11:55.224Z,66.60
2023-02-22T17:14:26.918Z,88.70
2023-02-22T17:16:54.398Z,76.03
2023-02-22T17:19:24.384Z,89.82
2023-02-22T17:21:51.929Z,84.38
2023-02-22T17:24:23.432Z,85.75
2023-02-22T17:26:51.945Z,99.20
2023-02-22T17:29:20.563Z,54.75
2023-02-22T17:31:48.886Z,8.80
2023-02-22T17:34:17.727Z,29.02
2023-02-22T17:36:45.259Z,8.97
2023-02-22T17:39:13.449Z,35.20
2023-02-22T17:41:42.252Z,41.55
2023-02-22T17:44:09.712Z,39.50
2023-02-22T17:46:37.375Z,44.38
2023-02-22T17:49:04.915Z,7.20
2023-02-22T17:51:32.428Z,7.60
2023-02-22T17:53:59.894Z,7.18
2023-02-22T17:56:27.363Z,10.32
2023-02-22T17:58:56.278Z,13.23
2023-02-22T18:01:26.863Z,15.17
2023-02-22T18:03:54.799Z,4.47
2023-02-22T18:06:26.945Z,6.87
2023-02-22T18:08:56.493Z,12.10
2023-02-22T18:11:26.220Z,29.70
2023-02-22T18:13:54.488Z,39.73
2023-02-22T18:16:25.431Z,16.47
2023-02-22T18:18:53.048Z,13.77
2023-02-22T18:21:20.570Z,8.50
2023-02-22T18:23:48.077Z,11.77
2023-02-22T18:26:17.790Z,13.27
2023-02-22T18:28:45.406Z,15.73
2023-02-22T18:31:15.411Z,15.00
2023-02-22T18:33:45.322Z,16.60
2023-02-22T18:36:14.379Z,19.43
2023-02-22T18:38:43.773Z,70.03
2023-02-22T18:41:13.374Z,57.00
2023-02-22T18:43:41.924Z,81.03
2023-02-22T18:46:11.103Z,107.20
2023-02-22T18:48:38.744Z,39.73
2023-02-22T18:51:10.161Z,24.63
2023-02-22T18:53:38.310Z,23.73
2023-02-22T18:56:08.326Z,16.20
2023-02-22T18:58:36.096Z,28.73
2023-02-22T19:01:04.771Z,25.43
2023-02-22T19:03:33.075Z,23.83
2023-02-22T19:06:02.762Z,24.17
2023-02-22T19:08:32.372Z,19.67
2023-02-22T19:11:05.134Z,8.57
2023-02-22T19:13:33.769Z,24.03
2023-02-22T19:16:03.174Z,25.90
2023-02-22T19:18:31.534Z,30.70
2023-02-22T19:20:59.386Z,30.20
2023-02-22T19:23:27.001Z,21.13
2023-02-22T19:25:55.919Z,40.60
2023-02-22T19:28:28.014Z,27.30
2023-02-22T19:30:55.550Z,26.73
2023-02-22T19:33:26.043Z,26.40
2023-02-22T19:35:53.703Z,30.60
2023-02-22T19:38:21.296Z,21.60
2023-02-22T19:40:48.789Z,40.37
2023-02-22T19:43:17.588Z,34.13
2023-02-22T19:45:45.102Z,27.87
2023-02-22T19:48:14.198Z,27.37
2023-02-22T19:50:48.857Z,24.50
2023-02-22T19:53:16.408Z,21.47
2023-02-22T19:55:44.510Z,36.17
2023-02-22T19:58:14.613Z,53.60
2023-02-22T20:00:43.439Z,96.40
2023-02-22T20:03:13.346Z,147.00
2023-02-22T20:05:41.946Z,107.17
2023-02-22T20:08:09.742Z,94.57
2023-02-22T20:10:37.207Z,125.87
2023-02-22T20:13:04.741Z,148.63
2023-02-22T20:15:34.513Z,139.00
2023-02-22T20:18:03.397Z,144.43
2023-02-22T20:20:33.500Z,124.93
2023-02-22T20:23:01.003Z,141.43
2023-02-22T20:25:28.465Z,116.20
2023-02-22T20:27:56.379Z,136.93
2023-02-22T20:30:23.859Z,136.63
2023-02-22T20:32:51.614Z,137.87
2023-02-22T20:35:21.126Z,156.73
2023-02-22T20:37:48.625Z,147.30
2023-02-22T20:40:16.237Z,152.93
2023-02-22T20:42:44.550Z,147.60
2023-02-22T20:45:14.579Z,146.13
2023-02-22T20:47:42.095Z,89.10
2023-02-22T20:50:09.909Z,126.67
2023-02-22T20:52:38.745Z,124.10
2023-02-22T20:55:11.353Z,147.17
2023-02-22T20:57:38.857Z,119.07
2023-02-22T21:00:10.427Z,163.77
2023-02-22T21:02:38.317Z,156.53
2023-02-22T21:05:06.478Z,163.97
2023-02-22T21:07:34.089Z,127.27
2023-02-22T21:10:04.536Z,169.93
2023-02-22T21:12:32.049Z,125.60
2023-02-22T21:14:59.592Z,152.40
2023-02-22T21:17:29.000Z,167.63
2023-02-22T21:19:56.620Z,144.40
2023-02-22T21:22:25.181Z,64.13
2023-02-22T21:24:53.232Z,117.43
2023-02-22T21:27:22.073Z,78.20
2023-02-22T21:29:49.526Z,44.43
2023-02-22T21:32:17.918Z,142.50
2023-02-22T21:34:45.404Z,173.77
2023-02-22T21:37:17.950Z,125.37
2023-02-22T21:39:47.475Z,154.10
2023-02-22T21:42:15.110Z,87.87
2023-02-22T21:44:43.916Z,87.20
2023-02-22T21:47:11.400Z,155.37
2023-02-22T21:49:38.974Z,176.77
2023-02-22T21:52:07.648Z,157.67
2023-02-22T21:54:35.108Z,150.57
2023-02-22T21:57:02.585Z,111.83
2023-02-22T21:59:30.069Z,103.60
2023-02-22T22:01:58.876Z,146.90
2023-02-22T22:04:29.372Z,101.23
2023-02-22T22:06:58.797Z,116.53
2023-02-22T22:09:29.025Z,97.10
2023-02-22T22:11:58.974Z,64.50
2023-02-22T22:14:27.238Z,58.20
2023-02-22T22:16:58.156Z,50.73
2023-02-22T22:19:27.037Z,39.37
2023-02-22T22:21:54.525Z,131.47
2023-02-22T22:24:23.528Z,149.70
2023-02-22T22:26:54.456Z,170.33
2023-02-22T22:29:23.664Z,139.37
2023-02-22T22:31:51.562Z,77.77
2023-02-22T22:34:19.481Z,128.17
2023-02-22T22:36:48.431Z,114.80
2023-02-22T22:39:16.053Z,21.30
2023-02-22T22:41:44.985Z,13.17
2023-02-22T22:44:15.194Z,23.10
2023-02-22T22:46:43.583Z,40.33
2023-02-22T22:49:13.287Z,72.53
2023-02-22T22:51:42.438Z,123.43
2023-02-22T22:54:11.684Z,140.93
2023-02-22T22:56:39.531Z,145.50
2023-02-22T22:59:09.535Z,74.27
2023-02-22T23:01:40.509Z,131.90
2023-02-22T23:04:10.687Z,109.67
2023-02-22T23:06:41.093Z,159.77
2023-02-22T23:09:11.375Z,53.67
2023-02-22T23:11:45.033Z,146.37
2023-02-22T23:14:15.123Z,148.87
2023-02-22T23:16:42.860Z,162.27
2023-02-22T23:19:10.692Z,128.80
2023-02-22T23:21:39.327Z,148.97
2023-02-22T23:24:07.316Z,176.80
2023-02-22T23:26:36.046Z,152.40
2023-02-22T23:29:05.406Z,116.90
2023-02-22T23:31:33.166Z,163.47
2023-02-22T23:34:06.516Z,152.90
2023-02-22T23:36:34.609Z,154.37
2023-02-22T23:39:02.103Z,105.30
2023-02-22T23:41:29.762Z,91.03
2023-02-22T23:43:57.874Z,155.60
2023-02-22T23:46:27.037Z,141.13
2023-02-22T23:49:01.542Z,163.77
2023-02-22T23:51:38.971Z,76.63
2023-02-22T23:54:07.240Z,112.93
2023-02-22T23:56:35.327Z,88.23
2023-02-22T23:59:09.448Z,60.73
